sensor_id;sensor_type;location;lat;lon;timestamp;P1;durP1;ratioP1;P2;durP2;ratioP2
6551;SDS011;3309;48.708;9.290;2024-02-16T00:01:36;0.60;;;0.60;;
6551;SDS011;3309;48.708;9.290;2024-02-16T00:04:02;0.70;;;0.70;;
6551;SDS011;3309;48.708;9.290;2024-02-16T00:06:28;0.60;;;0.60;;
6551;SDS011;3309;48.708;9.290;2024-02-16T00:08:54;0.70;;;0.70;;
6551;SDS011;3309;48.708;9.290;2024-02-16T00:11:20;0.60;;;0.60;;
6551;SDS011;3309;48.708;9.290;2024-02-16T00:13:46;0.63;;;0.63;;
6551;SDS011;3309;48.708;9.290;2024-02-16T00:16:12;0.70;;;0.70;;
6551;SDS011;3309;48.708;9.290;2024-02-16T00:18:38;0.80;;;0.80;;
6551;SDS011;3309;48.708;9.290;2024-02-16T00:21:06;0.80;;;0.80;;
6551;SDS011;3309;48.708;9.290;2024-02-16T00:23:32;0.60;;;0.60;;
6551;SDS011;3309;48.708;9.290;2024-02-16T00:25:59;0.60;;;0.60;;
6551;SDS011;3309;48.708;9.290;2024-02-16T00:28:24;0.70;;;0.70;;
6551;SDS011;3309;48.708;9.290;2024-02-16T00:30:50;0.60;;;0.60;;
6551;SDS011;3309;48.708;9.290;2024-02-16T00:33:16;0.60;;;0.60;;
6551;SDS011;3309;48.708;9.290;2024-02-16T00:35:43;0.80;;;0.80;;
6551;SDS011;3309;48.708;9.290;2024-02-16T00:38:09;0.70;;;0.70;;
6551;SDS011;3309;48.708;9.290;2024-02-16T00:40:35;0.70;;;0.70;;
6551;SDS011;3309;48.708;9.290;2024-02-16T00:43:02;0.63;;;0.63;;
6551;SDS011;3309;48.708;9.290;2024-02-16T00:45:28;0.60;;;0.60;;
6551;SDS011;3309;48.708;9.290;2024-02-16T00:47:54;0.60;;;0.60;;
6551;SDS011;3309;48.708;9.290;2024-02-16T00:50:22;0.60;;;0.60;;
6551;SDS011;3309;48.708;9.290;2024-02-16T00:52:48;0.70;;;0.70;;
6551;SDS011;3309;48.708;9.290;2024-02-16T00:55:14;0.60;;;0.60;;
6551;SDS011;3309;48.708;9.290;2024-02-16T00:57:40;0.70;;;0.70;;
6551;SDS011;3309;48.708;9.290;2024-02-16T01:00:07;0.70;;;0.70;;
6551;SDS011;3309;48.708;9.290;2024-02-16T01:02:34;0.63;;;0.63;;
6551;SDS011;3309;48.708;9.290;2024-02-16T01:05:00;0.70;;;0.70;;
6551;SDS011;3309;48.708;9.290;2024-02-16T01:07:27;0.70;;;0.70;;
6551;SDS011;3309;48.708;9.290;2024-02-16T01:09:53;0.67;;;0.67;;
6551;SDS011;3309;48.708;9.290;2024-02-16T01:12:20;0.70;;;0.70;;
6551;SDS011;3309;48.708;9.290;2024-02-16T01:14:46;0.60;;;0.60;;
6551;SDS011;3309;48.708;9.290;2024-02-16T01:17:11;0.70;;;0.70;;
6551;SDS011;3309;48.708;9.290;2024-02-16T01:19:37;0.63;;;0.63;;
6551;SDS011;3309;48.708;9.290;2024-02-16T01:22:03;0.60;;;0.60;;
6551;SDS011;3309;48.708;9.290;2024-02-16T01:24:29;0.70;;;0.70;;
6551;SDS011;3309;48.708;9.290;2024-02-16T01:26:55;0.60;;;0.60;;
6551;SDS011;3309;48.708;9.290;2024-02-16T01:29:22;0.70;;;0.70;;
6551;SDS011;3309;48.708;9.290;2024-02-16T01:31:48;0.70;;;0.70;;
6551;SDS011;3309;48.708;9.290;2024-02-16T01:34:14;0.80;;;0.80;;
6551;SDS011;3309;48.708;9.290;2024-02-16T01:36:40;0.60;;;0.60;;
6551;SDS011;3309;48.708;9.290;2024-02-16T01:39:06;0.63;;;0.63;;
6551;SDS011;3309;48.708;9.290;2024-02-16T01:41:32;0.70;;;0.70;;
6551;SDS011;3309;48.708;9.290;2024-02-16T01:44:00;0.70;;;0.70;;
6551;SDS011;3309;48.708;9.290;2024-02-16T01:46:26;0.60;;;0.60;;
6551;SDS011;3309;48.708;9.290;2024-02-16T01:48:52;0.60;;;0.60;;
6551;SDS011;3309;48.708;9.290;2024-02-16T01:51:19;0.60;;;0.60;;
6551;SDS011;3309;48.708;9.290;2024-02-16T01:53:47;0.60;;;0.60;;
6551;SDS011;3309;48.708;9.290;2024-02-16T01:56:12;0.60;;;0.60;;
6551;SDS011;3309;48.708;9.290;2024-02-16T01:58:39;0.70;;;0.70;;
6551;SDS011;3309;48.708;9.290;2024-02-16T02:01:05;0.63;;;0.63;;
6551;SDS011;3309;48.708;9.290;2024-02-16T02:03:31;0.67;;;0.67;;
6551;SDS011;3309;48.708;9.290;2024-02-16T02:05:57;0.70;;;0.70;;
6551;SDS011;3309;48.708;9.290;2024-02-16T02:08:24;0.60;;;0.60;;
6551;SDS011;3309;48.708;9.290;2024-02-16T02:10:51;0.67;;;0.67;;
6551;SDS011;3309;48.708;9.290;2024-02-16T02:13:17;0.60;;;0.60;;
6551;SDS011;3309;48.708;9.290;2024-02-16T02:15:44;0.70;;;0.70;;
6551;SDS011;3309;48.708;9.290;2024-02-16T02:18:10;0.70;;;0.70;;
6551;SDS011;3309;48.708;9.290;2024-02-16T02:20:37;0.70;;;0.70;;
6551;SDS011;3309;48.708;9.290;2024-02-16T02:23:03;0.70;;;0.70;;
6551;SDS011;3309;48.708;9.290;2024-02-16T02:25:29;0.60;;;0.60;;
6551;SDS011;3309;48.708;9.290;2024-02-16T02:27:55;0.70;;;0.70;;
6551;SDS011;3309;48.708;9.290;2024-02-16T02:30:21;0.70;;;0.70;;
6551;SDS011;3309;48.708;9.290;2024-02-16T02:32:49;0.70;;;0.70;;
6551;SDS011;3309;48.708;9.290;2024-02-16T02:35:16;0.70;;;0.70;;
6551;SDS011;3309;48.708;9.290;2024-02-16T02:37:42;0.70;;;0.70;;
6551;SDS011;3309;48.708;9.290;2024-02-16T02:40:08;0.67;;;0.67;;
6551;SDS011;3309;48.708;9.290;2024-02-16T02:42:35;0.60;;;0.60;;
6551;SDS011;3309;48.708;9.290;2024-02-16T02:45:01;0.70;;;0.70;;
6551;SDS011;3309;48.708;9.290;2024-02-16T02:47:27;0.63;;;0.63;;
6551;SDS011;3309;48.708;9.290;2024-02-16T02:49:53;0.60;;;0.60;;
6551;SDS011;3309;48.708;9.290;2024-02-16T02:52:20;0.60;;;0.60;;
6551;SDS011;3309;48.708;9.290;2024-02-16T02:54:46;0.70;;;0.70;;
6551;SDS011;3309;48.708;9.290;2024-02-16T02:57:12;0.70;;;0.70;;
6551;SDS011;3309;48.708;9.290;2024-02-16T02:59:38;0.60;;;0.60;;
6551;SDS011;3309;48.708;9.290;2024-02-16T03:02:04;0.73;;;0.73;;
6551;SDS011;3309;48.708;9.290;2024-02-16T03:04:30;0.60;;;0.60;;
6551;SDS011;3309;48.708;9.290;2024-02-16T03:06:56;0.60;;;0.60;;
6551;SDS011;3309;48.708;9.290;2024-02-16T03:09:22;0.63;;;0.63;;
6551;SDS011;3309;48.708;9.290;2024-02-16T03:11:48;0.70;;;0.70;;
6551;SDS011;3309;48.708;9.290;2024-02-16T03:14:15;0.70;;;0.70;;
6551;SDS011;3309;48.708;9.290;2024-02-16T03:16:41;0.67;;;0.67;;
6551;SDS011;3309;48.708;9.290;2024-02-16T03:19:07;0.70;;;0.70;;
6551;SDS011;3309;48.708;9.290;2024-02-16T03:21:34;0.70;;;0.70;;
6551;SDS011;3309;48.708;9.290;2024-02-16T03:24:01;0.70;;;0.70;;
6551;SDS011;3309;48.708;9.290;2024-02-16T03:26:27;0.70;;;0.70;;
6551;SDS011;3309;48.708;9.290;2024-02-16T03:28:53;0.70;;;0.70;;
6551;SDS011;3309;48.708;9.290;2024-02-16T03:31:20;0.70;;;0.70;;
6551;SDS011;3309;48.708;9.290;2024-02-16T03:33:47;0.80;;;0.80;;
6551;SDS011;3309;48.708;9.290;2024-02-16T03:36:13;0.80;;;0.80;;
6551;SDS011;3309;48.708;9.290;2024-02-16T03:38:46;0.70;;;0.70;;
6551;SDS011;3309;48.708;9.290;2024-02-16T03:41:19;0.60;;;0.60;;
6551;SDS011;3309;48.708;9.290;2024-02-16T03:43:45;0.63;;;0.63;;
6551;SDS011;3309;48.708;9.290;2024-02-16T03:46:11;0.70;;;0.70;;
6551;SDS011;3309;48.708;9.290;2024-02-16T03:48:38;0.70;;;0.70;;
6551;SDS011;3309;48.708;9.290;2024-02-16T03:51:04;0.70;;;0.70;;
6551;SDS011;3309;48.708;9.290;2024-02-16T03:53:31;0.60;;;0.60;;
6551;SDS011;3309;48.708;9.290;2024-02-16T03:55:57;0.70;;;0.70;;
6551;SDS011;3309;48.708;9.290;2024-02-16T03:58:23;0.70;;;0.70;;
6551;SDS011;3309;48.708;9.290;2024-02-16T04:00:49;0.63;;;0.63;;
6551;SDS011;3309;48.708;9.290;2024-02-16T04:03:16;0.60;;;0.60;;
6551;SDS011;3309;48.708;9.290;2024-02-16T04:05:42;0.67;;;0.67;;
6551;SDS011;3309;48.708;9.290;2024-02-16T04:08:08;0.60;;;0.60;;
6551;SDS011;3309;48.708;9.290;2024-02-16T04:10:34;0.70;;;0.70;;
6551;SDS011;3309;48.708;9.290;2024-02-16T04:13:00;0.63;;;0.63;;
6551;SDS011;3309;48.708;9.290;2024-02-16T04:15:26;0.80;;;0.80;;
6551;SDS011;3309;48.708;9.290;2024-02-16T04:17:52;0.70;;;0.70;;
6551;SDS011;3309;48.708;9.290;2024-02-16T04:20:19;0.70;;;0.70;;
6551;SDS011;3309;48.708;9.290;2024-02-16T04:22:45;0.70;;;0.70;;
6551;SDS011;3309;48.708;9.290;2024-02-16T04:25:11;0.50;;;0.50;;
6551;SDS011;3309;48.708;9.290;2024-02-16T04:27:37;0.50;;;0.50;;
6551;SDS011;3309;48.708;9.290;2024-02-16T04:30:03;0.80;;;0.80;;
6551;SDS011;3309;48.708;9.290;2024-02-16T04:32:30;0.70;;;0.70;;
6551;SDS011;3309;48.708;9.290;2024-02-16T04:34:56;0.60;;;0.60;;
6551;SDS011;3309;48.708;9.290;2024-02-16T04:37:22;0.67;;;0.67;;
6551;SDS011;3309;48.708;9.290;2024-02-16T04:39:48;0.67;;;0.67;;
6551;SDS011;3309;48.708;9.290;2024-02-16T04:42:15;0.67;;;0.67;;
6551;SDS011;3309;48.708;9.290;2024-02-16T04:44:41;0.60;;;0.60;;
6551;SDS011;3309;48.708;9.290;2024-02-16T04:47:06;0.60;;;0.60;;
6551;SDS011;3309;48.708;9.290;2024-02-16T04:49:35;0.70;;;0.70;;
6551;SDS011;3309;48.708;9.290;2024-02-16T04:52:01;0.60;;;0.60;;
6551;SDS011;3309;48.708;9.290;2024-02-16T04:54:27;0.80;;;0.80;;
6551;SDS011;3309;48.708;9.290;2024-02-16T04:56:53;0.70;;;0.70;;
6551;SDS011;3309;48.708;9.290;2024-02-16T04:59:19;0.70;;;0.70;;
6551;SDS011;3309;48.708;9.290;2024-02-16T05:01:46;0.70;;;0.70;;
6551;SDS011;3309;48.708;9.290;2024-02-16T05:04:12;0.70;;;0.70;;
6551;SDS011;3309;48.708;9.290;2024-02-16T05:06:42;0.60;;;0.60;;
6551;SDS011;3309;48.708;9.290;2024-02-16T05:09:08;0.60;;;0.60;;
6551;SDS011;3309;48.708;9.290;2024-02-16T05:11:34;0.80;;;0.80;;
6551;SDS011;3309;48.708;9.290;2024-02-16T05:14:00;0.50;;;0.50;;
6551;SDS011;3309;48.708;9.290;2024-02-16T05:16:26;0.70;;;0.70;;
6551;SDS011;3309;48.708;9.290;2024-02-16T05:18:52;0.70;;;0.70;;
6551;SDS011;3309;48.708;9.290;2024-02-16T05:21:18;0.70;;;0.70;;
6551;SDS011;3309;48.708;9.290;2024-02-16T05:23:44;0.60;;;0.60;;
6551;SDS011;3309;48.708;9.290;2024-02-16T05:26:10;0.70;;;0.70;;
6551;SDS011;3309;48.708;9.290;2024-02-16T05:28:36;0.80;;;0.80;;
6551;SDS011;3309;48.708;9.290;2024-02-16T05:31:16;0.70;;;0.70;;
6551;SDS011;3309;48.708;9.290;2024-02-16T05:33:49;0.60;;;0.60;;
6551;SDS011;3309;48.708;9.290;2024-02-16T05:36:17;0.70;;;0.70;;
6551;SDS011;3309;48.708;9.290;2024-02-16T05:38:45;0.60;;;0.60;;
6551;SDS011;3309;48.708;9.290;2024-02-16T05:41:11;0.70;;;0.70;;
6551;SDS011;3309;48.708;9.290;2024-02-16T05:43:37;0.80;;;0.80;;
6551;SDS011;3309;48.708;9.290;2024-02-16T05:46:03;0.70;;;0.70;;
6551;SDS011;3309;48.708;9.290;2024-02-16T05:48:31;0.60;;;0.60;;
6551;SDS011;3309;48.708;9.290;2024-02-16T05:50:59;0.60;;;0.60;;
6551;SDS011;3309;48.708;9.290;2024-02-16T05:53:26;0.70;;;0.70;;
6551;SDS011;3309;48.708;9.290;2024-02-16T05:55:52;0.70;;;0.70;;
6551;SDS011;3309;48.708;9.290;2024-02-16T05:58:18;0.70;;;0.70;;
6551;SDS011;3309;48.708;9.290;2024-02-16T06:00:44;0.77;;;0.77;;
6551;SDS011;3309;48.708;9.290;2024-02-16T06:03:12;0.70;;;0.70;;
6551;SDS011;3309;48.708;9.290;2024-02-16T06:05:38;0.70;;;0.70;;
6551;SDS011;3309;48.708;9.290;2024-02-16T06:08:05;0.80;;;0.80;;
6551;SDS011;3309;48.708;9.290;2024-02-16T06:10:32;0.70;;;0.70;;
6551;SDS011;3309;48.708;9.290;2024-02-16T06:12:58;0.70;;;0.70;;
6551;SDS011;3309;48.708;9.290;2024-02-16T06:15:24;0.63;;;0.63;;
6551;SDS011;3309;48.708;9.290;2024-02-16T06:17:50;0.70;;;0.70;;
6551;SDS011;3309;48.708;9.290;2024-02-16T06:20:16;0.60;;;0.60;;
6551;SDS011;3309;48.708;9.290;2024-02-16T06:22:42;0.70;;;0.70;;
6551;SDS011;3309;48.708;9.290;2024-02-16T06:25:08;0.70;;;0.70;;
6551;SDS011;3309;48.708;9.290;2024-02-16T06:27:35;0.60;;;0.60;;
6551;SDS011;3309;48.708;9.290;2024-02-16T06:30:02;0.70;;;0.70;;
6551;SDS011;3309;48.708;9.290;2024-02-16T06:32:29;0.63;;;0.63;;
6551;SDS011;3309;48.708;9.290;2024-02-16T06:34:56;0.40;;;0.40;;
6551;SDS011;3309;48.708;9.290;2024-02-16T06:37:22;0.70;;;0.70;;
6551;SDS011;3309;48.708;9.290;2024-02-16T06:39:48;0.70;;;0.70;;
6551;SDS011;3309;48.708;9.290;2024-02-16T06:42:14;0.60;;;0.60;;
6551;SDS011;3309;48.708;9.290;2024-02-16T06:44:40;0.60;;;0.60;;
6551;SDS011;3309;48.708;9.290;2024-02-16T06:47:06;0.60;;;0.60;;
6551;SDS011;3309;48.708;9.290;2024-02-16T06:49:32;0.60;;;0.60;;
6551;SDS011;3309;48.708;9.290;2024-02-16T06:51:58;0.60;;;0.60;;
6551;SDS011;3309;48.708;9.290;2024-02-16T06:54:24;0.70;;;0.70;;
6551;SDS011;3309;48.708;9.290;2024-02-16T06:56:50;0.70;;;0.70;;
6551;SDS011;3309;48.708;9.290;2024-02-16T06:59:17;0.63;;;0.63;;
6551;SDS011;3309;48.708;9.290;2024-02-16T07:01:43;0.70;;;0.70;;
6551;SDS011;3309;48.708;9.290;2024-02-16T07:04:09;0.70;;;0.70;;
6551;SDS011;3309;48.708;9.290;2024-02-16T07:06:35;0.60;;;0.60;;
6551;SDS011;3309;48.708;9.290;2024-02-16T07:09:01;0.70;;;0.70;;
6551;SDS011;3309;48.708;9.290;2024-02-16T07:11:27;0.70;;;0.70;;
6551;SDS011;3309;48.708;9.290;2024-02-16T07:13:53;0.63;;;0.63;;
6551;SDS011;3309;48.708;9.290;2024-02-16T07:16:19;0.70;;;0.70;;
6551;SDS011;3309;48.708;9.290;2024-02-16T07:18:45;0.60;;;0.60;;
6551;SDS011;3309;48.708;9.290;2024-02-16T07:21:11;0.67;;;0.67;;
6551;SDS011;3309;48.708;9.290;2024-02-16T07:23:37;0.70;;;0.70;;
6551;SDS011;3309;48.708;9.290;2024-02-16T07:26:04;0.73;;;0.73;;
6551;SDS011;3309;48.708;9.290;2024-02-16T07:28:30;0.60;;;0.60;;
6551;SDS011;3309;48.708;9.290;2024-02-16T07:30:56;0.60;;;0.60;;
6551;SDS011;3309;48.708;9.290;2024-02-16T07:33:22;0.53;;;0.53;;
6551;SDS011;3309;48.708;9.290;2024-02-16T07:35:49;0.50;;;0.50;;
6551;SDS011;3309;48.708;9.290;2024-02-16T07:38:16;0.50;;;0.50;;
6551;SDS011;3309;48.708;9.290;2024-02-16T07:40:42;0.40;;;0.40;;
6551;SDS011;3309;48.708;9.290;2024-02-16T07:43:10;0.50;;;0.50;;
6551;SDS011;3309;48.708;9.290;2024-02-16T07:45:36;0.40;;;0.40;;
6551;SDS011;3309;48.708;9.290;2024-02-16T07:48:02;0.40;;;0.40;;
6551;SDS011;3309;48.708;9.290;2024-02-16T07:50:30;0.40;;;0.40;;
6551;SDS011;3309;48.708;9.290;2024-02-16T07:52:56;0.30;;;0.30;;
6551;SDS011;3309;48.708;9.290;2024-02-16T07:55:23;0.30;;;0.30;;
6551;SDS011;3309;48.708;9.290;2024-02-16T07:57:49;0.30;;;0.30;;
6551;SDS011;3309;48.708;9.290;2024-02-16T08:00:15;0.30;;;0.30;;
6551;SDS011;3309;48.708;9.290;2024-02-16T08:02:42;0.33;;;0.33;;
6551;SDS011;3309;48.708;9.290;2024-02-16T08:05:11;0.30;;;0.30;;
6551;SDS011;3309;48.708;9.290;2024-02-16T08:07:40;0.40;;;0.40;;
6551;SDS011;3309;48.708;9.290;2024-02-16T08:10:07;0.30;;;0.30;;
6551;SDS011;3309;48.708;9.290;2024-02-16T08:12:33;0.43;;;0.43;;
6551;SDS011;3309;48.708;9.290;2024-02-16T08:15:00;0.40;;;0.40;;
6551;SDS011;3309;48.708;9.290;2024-02-16T08:17:26;0.40;;;0.40;;
6551;SDS011;3309;48.708;9.290;2024-02-16T08:19:53;0.30;;;0.30;;
6551;SDS011;3309;48.708;9.290;2024-02-16T08:22:19;0.30;;;0.30;;
6551;SDS011;3309;48.708;9.290;2024-02-16T08:24:45;0.40;;;0.40;;
6551;SDS011;3309;48.708;9.290;2024-02-16T08:27:11;0.30;;;0.30;;
6551;SDS011;3309;48.708;9.290;2024-02-16T08:29:38;0.40;;;0.40;;
6551;SDS011;3309;48.708;9.290;2024-02-16T08:32:04;0.40;;;0.40;;
6551;SDS011;3309;48.708;9.290;2024-02-16T08:34:31;0.40;;;0.40;;
6551;SDS011;3309;48.708;9.290;2024-02-16T08:36:57;0.30;;;0.30;;
6551;SDS011;3309;48.708;9.290;2024-02-16T08:39:23;0.37;;;0.37;;
6551;SDS011;3309;48.708;9.290;2024-02-16T08:41:52;0.50;;;0.50;;
6551;SDS011;3309;48.708;9.290;2024-02-16T08:44:18;0.50;;;0.50;;
6551;SDS011;3309;48.708;9.290;2024-02-16T08:46:44;0.40;;;0.40;;
6551;SDS011;3309;48.708;9.290;2024-02-16T08:49:13;0.40;;;0.40;;
6551;SDS011;3309;48.708;9.290;2024-02-16T08:51:39;0.40;;;0.40;;
6551;SDS011;3309;48.708;9.290;2024-02-16T08:54:05;0.50;;;0.50;;
6551;SDS011;3309;48.708;9.290;2024-02-16T08:56:32;0.40;;;0.40;;
6551;SDS011;3309;48.708;9.290;2024-02-16T08:59:00;0.57;;;0.57;;
6551;SDS011;3309;48.708;9.290;2024-02-16T09:01:29;0.50;;;0.50;;
6551;SDS011;3309;48.708;9.290;2024-02-16T09:03:55;0.40;;;0.40;;
6551;SDS011;3309;48.708;9.290;2024-02-16T09:06:21;0.50;;;0.50;;
6551;SDS011;3309;48.708;9.290;2024-02-16T09:08:47;0.30;;;0.30;;
6551;SDS011;3309;48.708;9.290;2024-02-16T09:11:13;0.30;;;0.30;;
6551;SDS011;3309;48.708;9.290;2024-02-16T09:13:39;0.40;;;0.40;;
6551;SDS011;3309;48.708;9.290;2024-02-16T09:16:06;0.40;;;0.40;;
6551;SDS011;3309;48.708;9.290;2024-02-16T09:18:32;0.40;;;0.40;;
6551;SDS011;3309;48.708;9.290;2024-02-16T09:20:58;0.60;;;0.60;;
6551;SDS011;3309;48.708;9.290;2024-02-16T09:23:24;0.50;;;0.50;;
6551;SDS011;3309;48.708;9.290;2024-02-16T09:25:50;0.50;;;0.50;;
6551;SDS011;3309;48.708;9.290;2024-02-16T09:28:16;0.47;;;0.47;;
6551;SDS011;3309;48.708;9.290;2024-02-16T09:30:46;0.50;;;0.50;;
6551;SDS011;3309;48.708;9.290;2024-02-16T09:33:12;0.50;;;0.50;;
6551;SDS011;3309;48.708;9.290;2024-02-16T09:35:39;0.40;;;0.40;;
6551;SDS011;3309;48.708;9.290;2024-02-16T09:38:05;0.50;;;0.50;;
6551;SDS011;3309;48.708;9.290;2024-02-16T09:40:31;0.40;;;0.40;;
6551;SDS011;3309;48.708;9.290;2024-02-16T09:42:57;0.40;;;0.40;;
6551;SDS011;3309;48.708;9.290;2024-02-16T09:45:23;0.30;;;0.30;;
6551;SDS011;3309;48.708;9.290;2024-02-16T09:47:51;0.40;;;0.40;;
6551;SDS011;3309;48.708;9.290;2024-02-16T09:50:17;0.40;;;0.40;;
6551;SDS011;3309;48.708;9.290;2024-02-16T09:52:46;0.30;;;0.30;;
6551;SDS011;3309;48.708;9.290;2024-02-16T09:55:13;0.40;;;0.40;;
6551;SDS011;3309;48.708;9.290;2024-02-16T09:57:39;0.30;;;0.30;;
6551;SDS011;3309;48.708;9.290;2024-02-16T10:00:05;0.40;;;0.40;;
6551;SDS011;3309;48.708;9.290;2024-02-16T10:02:39;0.33;;;0.33;;
6551;SDS011;3309;48.708;9.290;2024-02-16T10:05:17;0.40;;;0.40;;
6551;SDS011;3309;48.708;9.290;2024-02-16T10:07:43;0.50;;;0.50;;
6551;SDS011;3309;48.708;9.290;2024-02-16T10:10:28;0.50;;;0.50;;
6551;SDS011;3309;48.708;9.290;2024-02-16T10:13:05;0.50;;;0.50;;
6551;SDS011;3309;48.708;9.290;2024-02-16T10:15:33;0.50;;;0.50;;
6551;SDS011;3309;48.708;9.290;2024-02-16T10:20:25;0.60;;;0.60;;
6551;SDS011;3309;48.708;9.290;2024-02-16T10:25:29;0.50;;;0.50;;
6551;SDS011;3309;48.708;9.290;2024-02-16T10:27:56;0.60;;;0.60;;
6551;SDS011;3309;48.708;9.290;2024-02-16T10:30:29;0.50;;;0.50;;
6551;SDS011;3309;48.708;9.290;2024-02-16T10:32:56;0.60;;;0.60;;
6551;SDS011;3309;48.708;9.290;2024-02-16T10:35:24;0.60;;;0.60;;
6551;SDS011;3309;48.708;9.290;2024-02-16T10:37:51;0.50;;;0.50;;
6551;SDS011;3309;48.708;9.290;2024-02-16T10:40:19;0.50;;;0.50;;
6551;SDS011;3309;48.708;9.290;2024-02-16T10:42:46;0.47;;;0.47;;
6551;SDS011;3309;48.708;9.290;2024-02-16T10:45:16;0.40;;;0.40;;
6551;SDS011;3309;48.708;9.290;2024-02-16T10:47:43;0.40;;;0.40;;
6551;SDS011;3309;48.708;9.290;2024-02-16T10:50:09;0.30;;;0.30;;
6551;SDS011;3309;48.708;9.290;2024-02-16T10:52:36;0.30;;;0.30;;
6551;SDS011;3309;48.708;9.290;2024-02-16T10:55:04;0.30;;;0.30;;
6551;SDS011;3309;48.708;9.290;2024-02-16T10:57:30;0.30;;;0.30;;
6551;SDS011;3309;48.708;9.290;2024-02-16T10:59:58;0.30;;;0.30;;
6551;SDS011;3309;48.708;9.290;2024-02-16T11:02:24;0.30;;;0.30;;
6551;SDS011;3309;48.708;9.290;2024-02-16T11:04:52;0.30;;;0.30;;
6551;SDS011;3309;48.708;9.290;2024-02-16T11:07:18;0.30;;;0.30;;
6551;SDS011;3309;48.708;9.290;2024-02-16T11:09:45;0.37;;;0.37;;
6551;SDS011;3309;48.708;9.290;2024-02-16T11:12:13;0.30;;;0.30;;
6551;SDS011;3309;48.708;9.290;2024-02-16T11:14:46;0.30;;;0.30;;
6551;SDS011;3309;48.708;9.290;2024-02-16T11:17:14;0.30;;;0.30;;
6551;SDS011;3309;48.708;9.290;2024-02-16T11:19:40;0.30;;;0.30;;
6551;SDS011;3309;48.708;9.290;2024-02-16T11:22:06;0.30;;;0.30;;
6551;SDS011;3309;48.708;9.290;2024-02-16T11:24:34;0.33;;;0.33;;
6551;SDS011;3309;48.708;9.290;2024-02-16T11:27:04;0.30;;;0.30;;
6551;SDS011;3309;48.708;9.290;2024-02-16T11:29:34;0.30;;;0.30;;
6551;SDS011;3309;48.708;9.290;2024-02-16T11:32:01;0.30;;;0.30;;
6551;SDS011;3309;48.708;9.290;2024-02-16T11:34:27;0.30;;;0.30;;
6551;SDS011;3309;48.708;9.290;2024-02-16T11:37:12;0.30;;;0.30;;
6551;SDS011;3309;48.708;9.290;2024-02-16T11:39:39;0.30;;;0.30;;
6551;SDS011;3309;48.708;9.290;2024-02-16T11:42:09;0.30;;;0.30;;
6551;SDS011;3309;48.708;9.290;2024-02-16T11:44:36;0.30;;;0.30;;
6551;SDS011;3309;48.708;9.290;2024-02-16T11:47:05;0.30;;;0.30;;
6551;SDS011;3309;48.708;9.290;2024-02-16T11:49:33;0.30;;;0.30;;
6551;SDS011;3309;48.708;9.290;2024-02-16T11:51:59;0.30;;;0.30;;
6551;SDS011;3309;48.708;9.290;2024-02-16T11:54:25;0.20;;;0.20;;
6551;SDS011;3309;48.708;9.290;2024-02-16T11:56:52;0.30;;;0.30;;
6551;SDS011;3309;48.708;9.290;2024-02-16T11:59:19;0.30;;;0.30;;
6551;SDS011;3309;48.708;9.290;2024-02-16T12:01:49;0.40;;;0.40;;
6551;SDS011;3309;48.708;9.290;2024-02-16T12:04:26;0.40;;;0.40;;
6551;SDS011;3309;48.708;9.290;2024-02-16T12:06:56;0.40;;;0.40;;
6551;SDS011;3309;48.708;9.290;2024-02-16T12:09:22;0.37;;;0.37;;
6551;SDS011;3309;48.708;9.290;2024-02-16T12:11:49;0.40;;;0.40;;
6551;SDS011;3309;48.708;9.290;2024-02-16T12:14:16;0.40;;;0.40;;
6551;SDS011;3309;48.708;9.290;2024-02-16T12:16:46;0.30;;;0.30;;
6551;SDS011;3309;48.708;9.290;2024-02-16T12:19:13;0.40;;;0.40;;
6551;SDS011;3309;48.708;9.290;2024-02-16T12:21:39;0.30;;;0.30;;
6551;SDS011;3309;48.708;9.290;2024-02-16T12:24:05;0.30;;;0.30;;
6551;SDS011;3309;48.708;9.290;2024-02-16T12:26:31;0.30;;;0.30;;
6551;SDS011;3309;48.708;9.290;2024-02-16T12:28:57;0.30;;;0.30;;
6551;SDS011;3309;48.708;9.290;2024-02-16T12:31:23;0.30;;;0.30;;
6551;SDS011;3309;48.708;9.290;2024-02-16T12:33:51;0.30;;;0.30;;
6551;SDS011;3309;48.708;9.290;2024-02-16T12:36:17;0.30;;;0.30;;
6551;SDS011;3309;48.708;9.290;2024-02-16T12:38:43;0.30;;;0.30;;
6551;SDS011;3309;48.708;9.290;2024-02-16T12:41:09;0.30;;;0.30;;
6551;SDS011;3309;48.708;9.290;2024-02-16T12:43:35;0.40;;;0.40;;
6551;SDS011;3309;48.708;9.290;2024-02-16T12:46:01;0.30;;;0.30;;
6551;SDS011;3309;48.708;9.290;2024-02-16T12:48:29;0.40;;;0.40;;
6551;SDS011;3309;48.708;9.290;2024-02-16T12:50:55;0.40;;;0.40;;
6551;SDS011;3309;48.708;9.290;2024-02-16T12:53:23;0.30;;;0.30;;
6551;SDS011;3309;48.708;9.290;2024-02-16T12:55:50;0.30;;;0.30;;
6551;SDS011;3309;48.708;9.290;2024-02-16T12:58:16;0.30;;;0.30;;
6551;SDS011;3309;48.708;9.290;2024-02-16T13:00:42;0.30;;;0.30;;
6551;SDS011;3309;48.708;9.290;2024-02-16T13:03:08;0.37;;;0.37;;
6551;SDS011;3309;48.708;9.290;2024-02-16T13:05:34;0.30;;;0.30;;
6551;SDS011;3309;48.708;9.290;2024-02-16T13:08:00;0.30;;;0.30;;
6551;SDS011;3309;48.708;9.290;2024-02-16T13:10:26;0.40;;;0.40;;
6551;SDS011;3309;48.708;9.290;2024-02-16T13:12:52;0.37;;;0.37;;
6551;SDS011;3309;48.708;9.290;2024-02-16T13:15:18;0.40;;;0.40;;
6551;SDS011;3309;48.708;9.290;2024-02-16T13:17:44;0.30;;;0.30;;
6551;SDS011;3309;48.708;9.290;2024-02-16T13:20:10;0.30;;;0.30;;
6551;SDS011;3309;48.708;9.290;2024-02-16T13:22:36;0.33;;;0.33;;
6551;SDS011;3309;48.708;9.290;2024-02-16T13:25:05;0.40;;;0.40;;
6551;SDS011;3309;48.708;9.290;2024-02-16T13:27:31;0.33;;;0.33;;
6551;SDS011;3309;48.708;9.290;2024-02-16T13:29:58;0.40;;;0.40;;
6551;SDS011;3309;48.708;9.290;2024-02-16T13:32:24;0.40;;;0.40;;
6551;SDS011;3309;48.708;9.290;2024-02-16T13:34:50;0.30;;;0.30;;
6551;SDS011;3309;48.708;9.290;2024-02-16T13:37:16;0.30;;;0.30;;
6551;SDS011;3309;48.708;9.290;2024-02-16T13:39:42;0.40;;;0.40;;
6551;SDS011;3309;48.708;9.290;2024-02-16T13:42:08;0.33;;;0.33;;
6551;SDS011;3309;48.708;9.290;2024-02-16T13:44:34;0.40;;;0.40;;
6551;SDS011;3309;48.708;9.290;2024-02-16T13:47:00;0.30;;;0.30;;
6551;SDS011;3309;48.708;9.290;2024-02-16T13:49:26;0.40;;;0.40;;
6551;SDS011;3309;48.708;9.290;2024-02-16T13:51:52;0.30;;;0.30;;
6551;SDS011;3309;48.708;9.290;2024-02-16T13:54:18;0.40;;;0.40;;
6551;SDS011;3309;48.708;9.290;2024-02-16T13:56:47;0.50;;;0.50;;
6551;SDS011;3309;48.708;9.290;2024-02-16T13:59:13;0.40;;;0.40;;
6551;SDS011;3309;48.708;9.290;2024-02-16T14:01:39;0.30;;;0.30;;
6551;SDS011;3309;48.708;9.290;2024-02-16T14:04:05;0.40;;;0.40;;
6551;SDS011;3309;48.708;9.290;2024-02-16T14:06:30;0.30;;;0.30;;
6551;SDS011;3309;48.708;9.290;2024-02-16T14:08:56;0.30;;;0.30;;
6551;SDS011;3309;48.708;9.290;2024-02-16T14:11:23;0.40;;;0.40;;
6551;SDS011;3309;48.708;9.290;2024-02-16T14:13:49;0.50;;;0.50;;
6551;SDS011;3309;48.708;9.290;2024-02-16T14:16:15;0.40;;;0.40;;
6551;SDS011;3309;48.708;9.290;2024-02-16T14:18:41;0.40;;;0.40;;
6551;SDS011;3309;48.708;9.290;2024-02-16T14:21:08;0.40;;;0.40;;
6551;SDS011;3309;48.708;9.290;2024-02-16T14:23:34;0.40;;;0.40;;
6551;SDS011;3309;48.708;9.290;2024-02-16T14:26:00;0.40;;;0.40;;
6551;SDS011;3309;48.708;9.290;2024-02-16T14:28:26;0.30;;;0.30;;
6551;SDS011;3309;48.708;9.290;2024-02-16T14:30:52;0.40;;;0.40;;
6551;SDS011;3309;48.708;9.290;2024-02-16T14:33:18;0.40;;;0.40;;
6551;SDS011;3309;48.708;9.290;2024-02-16T14:35:45;0.33;;;0.33;;
6551;SDS011;3309;48.708;9.290;2024-02-16T14:38:12;0.40;;;0.40;;
6551;SDS011;3309;48.708;9.290;2024-02-16T14:40:38;0.40;;;0.40;;
6551;SDS011;3309;48.708;9.290;2024-02-16T14:43:05;0.30;;;0.30;;
6551;SDS011;3309;48.708;9.290;2024-02-16T14:45:32;0.40;;;0.40;;
6551;SDS011;3309;48.708;9.290;2024-02-16T14:47:58;0.30;;;0.30;;
6551;SDS011;3309;48.708;9.290;2024-02-16T14:50:24;0.40;;;0.40;;
6551;SDS011;3309;48.708;9.290;2024-02-16T14:52:50;0.40;;;0.40;;
6551;SDS011;3309;48.708;9.290;2024-02-16T14:55:16;0.50;;;0.50;;
6551;SDS011;3309;48.708;9.290;2024-02-16T14:57:43;0.40;;;0.40;;
6551;SDS011;3309;48.708;9.290;2024-02-16T15:00:09;0.30;;;0.30;;
6551;SDS011;3309;48.708;9.290;2024-02-16T15:02:36;0.37;;;0.37;;
6551;SDS011;3309;48.708;9.290;2024-02-16T15:05:03;0.30;;;0.30;;
6551;SDS011;3309;48.708;9.290;2024-02-16T15:07:30;0.30;;;0.30;;
6551;SDS011;3309;48.708;9.290;2024-02-16T15:09:56;0.30;;;0.30;;
6551;SDS011;3309;48.708;9.290;2024-02-16T15:12:22;0.43;;;0.43;;
6551;SDS011;3309;48.708;9.290;2024-02-16T15:14:49;0.40;;;0.40;;
6551;SDS011;3309;48.708;9.290;2024-02-16T15:17:15;0.30;;;0.30;;